UUDD

Domodedovo International Airport

Moscow, Russian Federation
TAF UUDD 160756Z 1609/1715 31007G12MPS 9999 BKN015 TX02/1609Z TNM00/1700Z FM161400 25006MPS 6000 FEW004 OVC011 TEMPO 1616/1706 25008G13MPS 3100 -SN BR OVC004 PROB40 TEMPO 1700/1706 -FZRA OVC003 BECMG 1706/1708 30010G18MPS BKN011
Issued Valid From Valid To
Feb-16 @ 07:56 UTC
(4 hours ago)
Feb-16 @ 09:00 UTC
(2 hours ago)
Feb-17 @ 15:00 UTC
(-1 days ago)
Feb-16 @ 09:00 to Feb-16 @ 14:00
TAF UUDD 160756Z 1609/1715 31007G12MPS 9999 BKN015 TX02/1609Z TNM00/1700Z
Wind Visibility Clouds
310° at 14 knots
 Gusting to 23 knots
10,000+ meters
  • Broken at 1,500' AGL
From Feb-16 @ 14:00 to Feb-17 @ 06:00
FM161400 25006MPS 6000 FEW004 OVC011
Wind Visibility Clouds
250° at 12 knots 6,003 meters
  • Few at 400' AGL
  • Overcast at 1,100' AGL
Temporary Feb-16 @ 16:00 to Feb-17 @ 06:00
TEMPO 1616/1706 25008G13MPS 3100 -SN BR OVC004
Wind Visibility Clouds Conditions
250° at 16 knots
 Gusting to 25 knots
3,106 meters
  • Overcast at 400' AGL
  • Light Snow
  • Mist
Temporary  (Probability 40%) Feb-17 @ 00:00 to Feb-17 @ 06:00
PROB40 TEMPO 1700/1706 -FZRA OVC003
Clouds Conditions
  • Overcast at 300' AGL
  • Light Freezing
  • Light Rain
Becoming Feb-17 @ 06:00 to Feb-17 @ 15:00
BECMG 1706/1708 30010G18MPS BKN011
Wind Visibility Clouds
300° at 19 knots
 Gusting to 35 knots
6,003 meters
  • Broken at 1,100' AGL
TAF UUDD 160756Z 1609/1715 31007G12MPS 9999 BKN015 TX02/1609Z TNM00/1700Z FM161400 25006MPS 6000 FEW004 OVC011 TEMPO 1616/1706 25008G13MPS 3100 -SN BR OVC004 PROB40 TEMPO 1700/1706 -FZRA OVC003 BECMG 1706/1708 30010G18MPS BKN011
Issued Feb-16 @ 07:56 UTC
(4 hours ago)
Valid From Feb-16 @ 09:00 UTC
(2 hours ago)
Valid To Feb-17 @ 15:00 UTC
(-1 days ago)
Feb-16 @ 09:00 - Feb-16 @ 14:00
Wind Visibility
310° at 14 knots
 Gusting to 23 knots
10,000+ meters
Clouds
  • Broken at 1,500' AGL
From Feb-16 @ 14:00 - Feb-17 @ 06:00
Wind Visibility
250° at 12 knots 6,003 meters
Clouds
  • Few at 400' AGL
  • Overcast at 1,100' AGL
Temporary Feb-16 @ 16:00 - Feb-17 @ 06:00
Wind Visibility
250° at 16 knots
 Gusting to 25 knots
3,106 meters
Clouds
  • Overcast at 400' AGL
Conditions
  • Light Snow
  • Mist
Probability 40% Temporary Feb-17 @ 00:00 - Feb-17 @ 06:00
Clouds
  • Overcast at 300' AGL
Conditions
  • Light Freezing
  • Light Rain
Becoming Feb-17 @ 06:00 - Feb-17 @ 15:00
Wind Visibility
300° at 19 knots
 Gusting to 35 knots
6,003 meters
Clouds
  • Broken at 1,100' AGL